首页
METAR-TAF:

METAR-TAF

机场 :

Sioux Gateway Airport (Col. Bud Day Field)

蘇城, 艾奥瓦州, 美国

纬度: 42-24-09N, 经度: 096-23-04W, 海拔: 335米

当前天气观测

该预报发布于22分钟前的20:52 UTC
风速13节,风向
温度 7°C
湿度 57%
气压 1006 hPa
能見度: 16.1公里
天空无云

METAR: KSUX 262052Z AUTO 19013KT 10SM CLR 07/M01 A2972 RMK AO2 SLP072 T00671006 56038

时间: 15:14 (21:14 UTC)

预报

该预报发布于3小时和54分钟前的17:20 UTC
预报有效从26日的 18点(UTC)到 27日的 18点(UTC)
风速18节,风向南转西南,有时为30节阵风
能見度: 10公里
多云层高于25000英尺
从 26日的 2300点(UTC)
风速12节,风向,有时为18节阵风
能見度: 10公里
散云层高于20000英尺
从 27日的 0000点(UTC)
风速9节,风向
能見度: 10公里
散云层高于18000英尺
从 27日的 1700点(UTC)
风速6节,风向东南
能見度: 10公里
多云层高于15000英尺

TAF: KSUX 261720Z 2618/2718 20018G30KT P6SM BKN250 FM262300 18012G18KT P6SM SCT200 FM270000 18009KT P6SM SCT180 FM271700 13006KT P6SM BKN150

超过4000个机场的气象观测和天气预报(METAR&TAF报告)。

可查询的气象台以黄色和红色小点在地图上表示。

将鼠标移到小点上方,可查看气象台名称。

然后点击查看天气观测和预报。

如需切换地图:点击带黑十字的绿色按钮放大地图;点击带横线的绿色按钮缩小地图;或者点击绿色箭头查看邻近地区的地图。


METAR-TAF: